Palmer, Illinois
Current Conditions -  °F | °C
As of 1:35 AM on Saturday 29 Nov 2014 (Local Time) from KTAZ Reporting Station
Clear Clear  
Wind Chill: -3°   Ceiling: Unl
Heat Index:   Visibility: 10mi
Dew Point:   Wind: 14mph
Humidity: 87%   Direction: 170°S
Pressure: 29.85"   Gusts: NA
Location:  39.46°N, 89.4°W
Report Text: KTAZ 290735Z AUTO 17012KT 10SM CLR 02/00 A2985 RMK AO2
Loading
Personal Weather Stations






























Interactive Weather Map New forecast layout! Learn more

10-Day Weather Forecast

Advertisements
Track Severe Weather on mobile